Saturday, October 25, 2014
01:32 UTC
  |  Log In   |  Register Free
Airport Search:

Modesto City-Co-Harry Sham Fld Airport
(KMOD)

FAA data valid effective September 18, 2014 - November 13, 2014 (unless otherwise noted).

 
 
 
 
 
 
 
 
 
 
 
 
 
 

Current Aviation Weather for Modesto City-Co-Harry Sham Fld Airport (KMOD)

The most recent METAR observation for KMOD was updated at: 0114
METAR Summary (Translated METAR)
KMOD
250053Z 00000KT 10SM CLR 25/10 A2984 RMK AO2 SLP104 T02500100
KSCK
250055Z 30007KT 10SM CLR 24/12 A2985 RMK AO2 SLP106 T02440122
(21 nm NW from KMOD)
KMER
250045Z 24005KT 5SM HZ SKC 26/09 A2984
(23.6 nm SE from KMOD)
TAF Summary (Translated TAF)
KSCK
(21 nm NW from KMOD)
241735Z 2418/2518 30005KT 6SM BR SCT008 TEMPO 2418/2419 2SM BR BKN006 FM242000 20006KT P6SM SKC FM250100 30009KT P6SM SCT250 FM251100 15010KT P6SM OVC250
KMER
(23.6 nm SE from KMOD)
241720Z 2418/2518 33006KT P6SM SKC FM251500 13008KT P6SM SCT050 BKN100
  Airport Weather Conditions for KMOD

 Current Weather at MOD
77° F
Fair
North winds at 0.0 mph
MOD NOAA Radar

Pressure: 29.84 in
Humidity: 39%
Wind: Calm
Dew Point: 50.0°F
Visibility: 10.00 mi


Airport Weather Forecast for KMOD

Translated METAR and TAF for KMOD
Translated METAR for KMOD (0127 UTC 25 October 2014)
found at http://aviationweather.gov/adds/metars/
 
METAR text: KMOD 250053Z 00000KT 10SM CLR 25/10 A2984 RMK AO2 SLP104 T02500100
Conditions at: KMOD (MODESTO , CA, US) observed 0053 UTC 25 October 2014
Temperature: 25.0°C (77°F)
Dewpoint: 10.0°C (50°F) [RH = 39%]
Pressure (altimeter): 29.84 inches Hg (1010.6 mb)
[Sea-level pressure: 1010.4 mb]
Winds: calm
Visibility: 10 or more miles (16+ km)
Ceiling: at least 12,000 feet AGL
Clouds: sky clear below 12,000 feet AGL
Weather: no significant weather observed at this time
Translated TAF for KMOD

There is no translated TAF available for this airport

Find All Airport Services Find A Hotel Find A Rental Car Find A Golf Course Find A Restaurant $100 Hamburger



FBO's on the Field
FBO Company Facility Photos Services Transportation Aviation Fuel Prices: Prices include tax
Catering Weather Repair Courtesy Rental Type 100LL JetA JetA+ MOGAS 8087
 
Sky Trek Aviation

This FBO has not yet been rated
FS:Avfuel
Last Updated: Oct-07
Login to update fuel prices
SS:
Contact Sky Trek AviationMore FBO Information
 
Add another FBO Facility Photos Catering Weather Repair Courtesy Rental Type 100LL JetA JetA+ MOGAS 8087
Services Transportation Aviation Fuel Prices: Prices include tax


model-print
model-print
model-print
model-print